Terminal Aerodrome Forecast
Issued by NWS

Home | Current Version | Previous Version | Text Only | Print | Product List | Glossary On
Versions: 1 2 3 4 5 6 7 8 9 10 11 12 13 14 15 16 17 18 19
947
FTAK31 PAJN 120541
TAFAKT
TAF
PAKT 120541Z 1206/1306 14012KT P6SM BKN150 WS020/15045KT
     FM121000 14015KT P6SM -RA BKN050 OVC080 WS020/16040KT
     FM121600 16010KT 6SM -RA BR BKN025 OVC035
      AMD LTD TO CLD VIS AND WIND 1206/1215=

USA.gov is the U.S. government's official web portal to all federal, state and local government web resources and services.